createdAt,value
2023-09-13T00:00:56.142Z,18.53
2023-09-13T00:03:23.075Z,18.18
2023-09-13T00:05:49.809Z,18.31
2023-09-13T00:08:16.564Z,18.90
2023-09-13T00:10:45.799Z,18.82
2023-09-13T00:13:14.142Z,18.78
2023-09-13T00:15:45.486Z,18.60
2023-09-13T00:18:17.076Z,18.35
2023-09-13T00:20:45.028Z,18.32
2023-09-13T00:23:11.757Z,17.85
2023-09-13T00:25:38.518Z,17.77
2023-09-13T00:28:05.628Z,17.26
2023-09-13T00:30:32.831Z,17.37
2023-09-13T00:32:59.602Z,17.23
2023-09-13T00:35:26.420Z,17.27
2023-09-13T00:37:53.076Z,17.41
2023-09-13T00:40:19.811Z,16.77
2023-09-13T00:42:46.583Z,17.74
2023-09-13T00:45:13.656Z,16.81
2023-09-13T00:47:43.037Z,16.78
2023-09-13T00:50:13.857Z,17.18
2023-09-13T00:52:42.960Z,16.97
2023-09-13T00:55:11.597Z,16.03
2023-09-13T00:57:38.507Z,15.87
2023-09-13T01:00:12.620Z,15.92
2023-09-13T01:02:41.569Z,15.70
2023-09-13T01:05:14.548Z,15.75
2023-09-13T01:07:43.018Z,16.20
2023-09-13T01:10:11.394Z,15.58
2023-09-13T01:12:38.907Z,15.15
2023-09-13T01:15:07.774Z,15.10
2023-09-13T01:17:47.795Z,15.07
2023-09-13T01:20:47.657Z,15.20
2023-09-13T01:23:23.635Z,14.89
2023-09-13T01:26:21.757Z,15.03
2023-09-13T01:28:51.723Z,15.01
2023-09-13T01:31:19.255Z,15.11
2023-09-13T01:33:46.476Z,15.39
2023-09-13T01:36:13.635Z,15.57
2023-09-13T01:38:41.366Z,15.32
2023-09-13T01:41:34.677Z,14.75
2023-09-13T01:44:01.550Z,14.58
2023-09-13T01:46:35.264Z,14.60
2023-09-13T01:49:04.148Z,14.79
2023-09-13T01:51:34.219Z,14.39
2023-09-13T01:54:01.298Z,14.41
2023-09-13T01:56:28.402Z,14.76
2023-09-13T01:58:55.358Z,14.58
2023-09-13T02:01:23.140Z,14.58
2023-09-13T02:03:50.114Z,14.38
2023-09-13T02:06:16.927Z,14.74
2023-09-13T02:08:44.470Z,14.33
2023-09-13T02:11:12.002Z,12.83
2023-09-13T02:13:39.114Z,13.82
2023-09-13T02:16:06.270Z,12.29
2023-09-13T02:18:34.165Z,12.48
2023-09-13T02:21:00.819Z,13.16
2023-09-13T02:23:27.541Z,11.71
2023-09-13T02:25:55.643Z,14.17
2023-09-13T02:28:22.358Z,13.96
2023-09-13T02:30:49.359Z,13.03
2023-09-13T02:33:16.076Z,13.02
2023-09-13T02:35:42.786Z,13.59
2023-09-13T02:38:09.452Z,13.85
2023-09-13T02:40:38.004Z,13.82
2023-09-13T02:43:05.008Z,14.12
2023-09-13T02:45:31.706Z,13.18
2023-09-13T02:47:58.617Z,12.57
2023-09-13T02:50:25.329Z,12.38
2023-09-13T02:52:52.087Z,12.18
2023-09-13T02:55:18.925Z,12.12
2023-09-13T02:57:45.645Z,12.21
2023-09-13T03:00:12.926Z,11.76
2023-09-13T03:02:39.676Z,12.02
2023-09-13T03:05:07.814Z,12.07
2023-09-13T03:07:34.521Z,12.69
2023-09-13T03:10:01.245Z,12.74
2023-09-13T03:12:28.062Z,12.91
2023-09-13T03:14:57.339Z,12.95
2023-09-13T03:17:24.240Z,12.75
2023-09-13T03:19:50.999Z,14.13
2023-09-13T03:22:17.718Z,14.83
2023-09-13T03:24:44.453Z,14.81
2023-09-13T03:27:11.212Z,15.89
2023-09-13T03:29:37.898Z,16.72
2023-09-13T03:32:06.072Z,17.33
2023-09-13T03:34:32.834Z,18.53
2023-09-13T03:36:59.567Z,20.28
2023-09-13T03:39:29.322Z,20.54
2023-09-13T03:42:00.067Z,20.67
2023-09-13T03:44:27.128Z,21.63
2023-09-13T03:46:53.973Z,22.75
2023-09-13T03:49:20.754Z,22.43
2023-09-13T03:51:47.798Z,23.66
2023-09-13T03:54:14.501Z,23.69
2023-09-13T03:56:41.129Z,24.45
2023-09-13T03:59:07.776Z,24.57
2023-09-13T04:01:34.782Z,23.99
2023-09-13T04:04:01.500Z,23.91
2023-09-13T04:06:28.557Z,24.50
2023-09-13T04:08:55.632Z,23.98
2023-09-13T04:11:22.295Z,24.71
2023-09-13T04:13:48.970Z,24.44
2023-09-13T04:16:17.022Z,23.89
2023-09-13T04:18:43.889Z,24.34
2023-09-13T04:21:10.538Z,24.77
2023-09-13T04:23:37.167Z,25.23
2023-09-13T04:26:04.639Z,25.28
2023-09-13T04:28:33.384Z,25.77
2023-09-13T04:31:00.990Z,25.87
2023-09-13T04:33:50.670Z,26.08
2023-09-13T04:36:17.521Z,25.81
2023-09-13T04:38:44.290Z,26.71
2023-09-13T04:41:15.514Z,26.06
2023-09-13T04:43:43.104Z,26.71
2023-09-13T04:46:10.559Z,26.98
2023-09-13T04:48:37.364Z,26.42
2023-09-13T04:51:05.609Z,27.05
2023-09-13T04:53:33.144Z,27.49
2023-09-13T04:56:01.778Z,26.97
2023-09-13T04:58:31.777Z,27.79
2023-09-13T05:01:00.118Z,27.77
2023-09-13T05:03:27.130Z,28.09
2023-09-13T05:05:56.198Z,27.84
2023-09-13T05:08:22.885Z,28.24
2023-09-13T05:10:52.733Z,27.85
2023-09-13T05:13:19.587Z,28.18
2023-09-13T05:15:46.469Z,27.54
2023-09-13T05:18:13.292Z,27.50
2023-09-13T05:20:40.075Z,27.91
2023-09-13T05:23:06.798Z,28.05
2023-09-13T05:25:34.491Z,28.46
2023-09-13T05:28:01.924Z,29.07
2023-09-13T05:30:33.390Z,28.83
2023-09-13T05:33:00.074Z,28.85
2023-09-13T05:35:26.846Z,29.32
2023-09-13T05:37:53.550Z,28.92
2023-09-13T05:40:20.406Z,29.14
2023-09-13T05:42:47.155Z,29.41
2023-09-13T05:45:13.806Z,30.30
2023-09-13T05:47:40.516Z,29.17
2023-09-13T05:50:07.642Z,29.84
2023-09-13T05:52:34.390Z,28.67
2023-09-13T05:55:01.159Z,24.54
2023-09-13T05:57:29.431Z,22.77
2023-09-13T05:59:56.156Z,13.28
2023-09-13T06:02:22.913Z,7.80
2023-09-13T06:04:49.652Z,5.02
2023-09-13T06:07:16.615Z,3.23
2023-09-13T06:09:43.341Z,2.64
2023-09-13T06:12:10.211Z,1.78
2023-09-13T06:14:38.121Z,1.33
2023-09-13T06:17:05.052Z,1.06
2023-09-13T06:19:32.176Z,0.91
2023-09-13T06:21:58.891Z,0.98
2023-09-13T06:24:25.630Z,0.69
2023-09-13T06:26:53.696Z,0.63
2023-09-13T06:29:20.575Z,0.63
2023-09-13T06:32:04.051Z,0.67
2023-09-13T06:34:32.820Z,0.67
2023-09-13T06:37:00.436Z,0.81
2023-09-13T06:39:28.202Z,1.05
2023-09-13T06:41:55.474Z,0.91
2023-09-13T06:44:39.945Z,0.95
2023-09-13T06:47:09.251Z,1.06
2023-09-13T06:49:37.817Z,1.32
2023-09-13T06:52:06.570Z,1.08
2023-09-13T06:54:36.344Z,1.14
2023-09-13T06:57:05.727Z,1.12
2023-09-13T06:59:47.135Z,1.02
2023-09-13T07:02:31.308Z,1.14
2023-09-13T07:07:30.133Z,1.14
2023-09-13T07:09:56.745Z,1.26
2023-09-13T07:12:27.315Z,1.34
2023-09-13T07:14:55.826Z,1.41
2023-09-13T07:17:22.746Z,1.50
2023-09-13T07:19:50.349Z,1.51
2023-09-13T07:22:17.708Z,1.59
2023-09-13T07:24:44.672Z,1.53
2023-09-13T07:27:11.434Z,1.84
2023-09-13T07:29:38.118Z,1.86
2023-09-13T07:32:05.140Z,1.93
2023-09-13T07:34:32.938Z,2.07
2023-09-13T07:36:59.785Z,2.04
2023-09-13T07:39:26.462Z,2.01
2023-09-13T07:41:53.088Z,2.08
2023-09-13T07:44:19.740Z,2.13
2023-09-13T07:46:46.621Z,2.11
2023-09-13T07:49:13.325Z,2.18
2023-09-13T07:51:40.010Z,2.21
2023-09-13T07:54:08.886Z,2.26
2023-09-13T07:56:38.397Z,2.16
2023-09-13T07:59:06.698Z,1.90
2023-09-13T08:01:33.440Z,1.81
2023-09-13T08:04:00.248Z,2.28
2023-09-13T08:06:26.950Z,2.04
2023-09-13T08:08:53.762Z,1.96
2023-09-13T08:11:20.434Z,1.92
2023-09-13T08:13:47.100Z,1.89
2023-09-13T08:16:13.908Z,1.86
2023-09-13T08:18:40.592Z,2.20
2023-09-13T08:21:07.351Z,1.89
2023-09-13T08:23:34.210Z,1.98
2023-09-13T08:26:13.379Z,1.67
2023-09-13T08:28:47.757Z,1.74
2023-09-13T08:31:14.612Z,2.01
2023-09-13T08:33:41.276Z,1.72
2023-09-13T08:36:08.258Z,1.91
2023-09-13T08:38:34.987Z,1.88
2023-09-13T08:41:03.969Z,1.57
2023-09-13T08:43:33.175Z,1.58
2023-09-13T08:46:01.314Z,1.79
2023-09-13T08:48:29.129Z,1.68
2023-09-13T08:50:56.006Z,1.70
2023-09-13T08:53:23.925Z,1.68
2023-09-13T08:55:52.118Z,1.71
2023-09-13T08:58:20.008Z,1.74
2023-09-13T09:00:50.756Z,1.65
2023-09-13T09:03:21.746Z,1.62
2023-09-13T09:05:49.230Z,1.54
2023-09-13T09:08:16.265Z,1.43
2023-09-13T09:10:44.377Z,1.69
2023-09-13T09:13:12.437Z,1.67
2023-09-13T09:15:41.521Z,1.58
2023-09-13T09:18:13.153Z,1.77
2023-09-13T09:20:40.824Z,1.78
2023-09-13T09:23:09.032Z,1.70
2023-09-13T09:25:40.747Z,1.74
2023-09-13T09:28:07.570Z,2.00
2023-09-13T09:30:34.715Z,2.01
2023-09-13T09:33:08.015Z,2.05
2023-09-13T09:35:36.341Z,2.05
2023-09-13T09:38:07.098Z,1.99
2023-09-13T09:40:40.114Z,1.94
2023-09-13T09:43:09.263Z,2.17
2023-09-13T09:45:36.080Z,2.00
2023-09-13T09:48:03.476Z,2.13
2023-09-13T09:50:33.351Z,2.27
2023-09-13T09:53:00.300Z,2.21
2023-09-13T09:55:27.278Z,2.24
2023-09-13T09:57:56.748Z,2.46
2023-09-13T10:00:23.799Z,2.33
2023-09-13T10:02:50.925Z,2.22
2023-09-13T10:05:19.584Z,2.13
2023-09-13T10:07:57.644Z,2.32
2023-09-13T10:10:34.952Z,2.34
2023-09-13T10:13:02.151Z,2.34
2023-09-13T10:15:29.345Z,2.60
2023-09-13T10:17:56.911Z,2.43
2023-09-13T10:20:25.252Z,2.33
2023-09-13T10:22:55.773Z,2.49
2023-09-13T10:25:26.736Z,2.30
2023-09-13T10:27:55.774Z,2.19
2023-09-13T10:30:29.100Z,2.22
2023-09-13T10:32:59.526Z,2.45
2023-09-13T10:35:30.618Z,2.25
2023-09-13T10:38:07.589Z,1.88
2023-09-13T10:40:41.115Z,2.01
2023-09-13T10:43:09.996Z,1.68
2023-09-13T10:45:42.118Z,1.87
2023-09-13T10:48:09.989Z,1.68
2023-09-13T10:50:38.500Z,1.62
2023-09-13T10:53:05.483Z,1.39
2023-09-13T10:55:34.023Z,1.44
2023-09-13T10:58:04.303Z,1.62
2023-09-13T11:00:33.473Z,1.59
2023-09-13T11:03:01.104Z,1.50
2023-09-13T11:05:30.100Z,1.41
2023-09-13T11:07:57.073Z,1.47
2023-09-13T11:10:23.892Z,1.28
2023-09-13T11:12:51.573Z,1.50
2023-09-13T11:15:27.659Z,1.70
2023-09-13T11:18:15.048Z,1.66
2023-09-13T11:20:43.545Z,1.68
2023-09-13T11:23:31.935Z,1.87
2023-09-13T11:26:10.951Z,1.59
2023-09-13T11:28:39.144Z,1.86
2023-09-13T11:31:08.453Z,1.89
2023-09-13T11:33:59.549Z,2.04
2023-09-13T11:36:28.741Z,2.06
2023-09-13T11:39:01.268Z,1.64
2023-09-13T11:41:28.256Z,1.86
2023-09-13T11:44:04.039Z,1.54
2023-09-13T11:46:34.009Z,1.50
2023-09-13T11:49:03.504Z,1.90
2023-09-13T11:54:19.320Z,1.77
2023-09-13T11:56:50.241Z,1.79
2023-09-13T11:59:20.115Z,1.93
2023-09-13T12:01:51.191Z,2.00
2023-09-13T12:04:51.794Z,1.93
2023-09-13T12:07:12.507Z,1.84
2023-09-13T12:09:40.286Z,1.84
2023-09-13T12:12:11.914Z,1.92
2023-09-13T12:14:57.699Z,1.76
2023-09-13T12:17:37.976Z,1.69
2023-09-13T12:20:09.233Z,1.28
2023-09-13T12:22:41.458Z,1.23
2023-09-13T12:25:12.333Z,1.24
2023-09-13T12:27:39.606Z,1.14
2023-09-13T12:30:15.912Z,1.37
2023-09-13T12:32:42.835Z,1.53
2023-09-13T12:35:09.757Z,1.80
2023-09-13T12:37:36.484Z,1.95
2023-09-13T12:40:15.615Z,2.14
2023-09-13T12:42:43.481Z,2.00
2023-09-13T12:45:10.779Z,1.87
2023-09-13T12:47:38.363Z,2.44
2023-09-13T12:50:18.421Z,1.95
2023-09-13T12:52:54.700Z,2.21
2023-09-13T12:55:25.720Z,2.05
2023-09-13T12:57:53.676Z,2.22
2023-09-13T13:00:20.607Z,2.22
2023-09-13T13:02:54.601Z,2.35
2023-09-13T13:05:21.320Z,2.30
2023-09-13T13:08:01.965Z,2.33
2023-09-13T13:10:29.668Z,2.17
2023-09-13T13:12:56.534Z,2.07
2023-09-13T13:15:31.680Z,2.01
2023-09-13T13:17:58.548Z,2.29
2023-09-13T13:20:27.937Z,2.41
2023-09-13T13:22:55.324Z,2.45
2023-09-13T13:25:22.943Z,2.59
2023-09-13T13:27:50.527Z,2.52
2023-09-13T13:30:17.220Z,2.48
2023-09-13T13:32:43.932Z,2.58
2023-09-13T13:35:10.743Z,2.71
2023-09-13T13:37:37.430Z,2.70
2023-09-13T13:40:04.347Z,2.68
2023-09-13T13:42:31.107Z,2.71
2023-09-13T13:44:57.839Z,2.77
2023-09-13T13:47:24.490Z,2.71
2023-09-13T13:49:51.110Z,2.59
2023-09-13T13:52:17.733Z,2.66
2023-09-13T13:54:44.484Z,2.48
2023-09-13T13:57:13.316Z,2.23
2023-09-13T13:59:40.582Z,2.30
2023-09-13T14:02:07.455Z,2.29
2023-09-13T14:04:34.156Z,2.46
2023-09-13T14:07:00.881Z,2.27
2023-09-13T14:09:27.649Z,2.22
2023-09-13T14:11:54.274Z,2.48
2023-09-13T14:14:21.035Z,2.31
2023-09-13T14:16:51.519Z,2.48
2023-09-13T14:19:18.478Z,2.33
2023-09-13T14:21:45.544Z,2.41
2023-09-13T14:24:12.341Z,2.41
2023-09-13T14:26:39.120Z,2.53
2023-09-13T14:29:06.139Z,2.43
2023-09-13T14:31:38.129Z,2.61
2023-09-13T14:34:07.155Z,2.51
2023-09-13T14:36:33.887Z,2.45
2023-09-13T14:39:00.628Z,2.49
2023-09-13T14:41:27.245Z,2.56
2023-09-13T14:43:53.853Z,2.74
2023-09-13T14:46:20.560Z,2.68
2023-09-13T14:48:50.107Z,2.81
2023-09-13T14:51:16.953Z,2.75
2023-09-13T14:53:43.760Z,2.95
2023-09-13T14:56:10.420Z,2.77
2023-09-13T14:58:37.071Z,2.86
2023-09-13T15:01:05.937Z,2.88
2023-09-13T15:03:34.997Z,2.92
2023-09-13T15:06:04.693Z,2.91
2023-09-13T15:08:31.422Z,2.81
2023-09-13T15:10:58.069Z,2.78
2023-09-13T15:13:24.823Z,2.74
2023-09-13T15:15:52.713Z,2.78
2023-09-13T15:18:19.841Z,2.73
2023-09-13T15:20:47.510Z,2.86
2023-09-13T15:23:14.280Z,2.69
2023-09-13T15:25:40.960Z,2.71
2023-09-13T15:28:07.612Z,2.80
2023-09-13T15:30:34.291Z,2.60
2023-09-13T15:33:01.119Z,2.48
2023-09-13T15:35:28.613Z,2.57
2023-09-13T15:37:55.305Z,2.64
2023-09-13T15:40:21.975Z,2.79
2023-09-13T15:42:49.033Z,2.66
2023-09-13T15:45:17.200Z,2.73
2023-09-13T15:47:46.225Z,2.58
2023-09-13T15:50:12.983Z,2.42
2023-09-13T15:52:39.659Z,2.43
2023-09-13T15:55:06.455Z,2.55
2023-09-13T15:57:33.138Z,2.66
2023-09-13T15:59:59.961Z,2.59
2023-09-13T16:02:26.771Z,2.37
2023-09-13T16:04:53.615Z,2.38
2023-09-13T16:07:20.274Z,2.57
2023-09-13T16:09:46.984Z,2.43
2023-09-13T16:12:13.771Z,2.76
2023-09-13T16:14:40.774Z,2.35
2023-09-13T16:17:08.251Z,2.41
2023-09-13T16:19:35.021Z,2.30
2023-09-13T16:22:03.104Z,2.28
2023-09-13T16:24:29.825Z,2.43
2023-09-13T16:26:57.525Z,2.50
2023-09-13T16:29:25.712Z,2.28
2023-09-13T16:31:52.565Z,2.17
2023-09-13T16:34:19.298Z,2.00
2023-09-13T16:36:45.955Z,1.98
2023-09-13T16:39:17.191Z,1.90
2023-09-13T16:41:44.131Z,2.14
2023-09-13T16:44:10.811Z,2.02
2023-09-13T16:46:37.488Z,2.10
2023-09-13T16:49:04.390Z,2.09
2023-09-13T16:51:31.100Z,2.04
2023-09-13T16:53:58.613Z,2.02
2023-09-13T16:56:25.900Z,1.76
2023-09-13T16:58:52.886Z,1.93
2023-09-13T17:01:19.714Z,2.11
2023-09-13T17:03:47.183Z,2.32
2023-09-13T17:06:14.864Z,2.07
2023-09-13T17:08:42.278Z,1.87
2023-09-13T17:11:14.073Z,1.90
2023-09-13T17:13:41.616Z,1.80
2023-09-13T17:16:08.881Z,1.80
2023-09-13T17:18:35.698Z,1.82
2023-09-13T17:21:02.490Z,1.95
2023-09-13T17:23:30.385Z,1.69
2023-09-13T17:25:57.529Z,1.67
2023-09-13T17:28:24.979Z,1.73
2023-09-13T17:30:55.296Z,1.86
2023-09-13T17:33:22.232Z,1.84
2023-09-13T17:35:49.825Z,1.54
2023-09-13T17:38:16.738Z,1.64
2023-09-13T17:40:43.687Z,1.71
2023-09-13T17:43:10.312Z,1.50
2023-09-13T17:45:38.205Z,2.05
2023-09-13T17:48:05.696Z,2.61
2023-09-13T17:50:33.716Z,1.98
2023-09-13T17:53:05.073Z,1.67
2023-09-13T17:55:32.561Z,1.70
2023-09-13T17:58:01.204Z,1.88
2023-09-13T18:00:31.347Z,1.75
2023-09-13T18:02:58.298Z,1.92
2023-09-13T18:05:25.213Z,2.00
2023-09-13T18:07:59.265Z,1.91
2023-09-13T18:10:26.823Z,2.12
2023-09-13T18:12:53.673Z,1.80
2023-09-13T18:15:20.743Z,1.86
2023-09-13T18:17:55.187Z,1.80
2023-09-13T18:20:23.394Z,1.92
2023-09-13T18:22:50.202Z,1.95
2023-09-13T18:25:17.217Z,2.02
2023-09-13T18:27:44.181Z,2.05
2023-09-13T18:30:12.154Z,1.94
2023-09-13T18:32:38.997Z,1.94
2023-09-13T18:35:06.247Z,2.21
2023-09-13T18:37:34.511Z,2.12
2023-09-13T18:40:01.172Z,2.22
2023-09-13T18:42:27.963Z,2.05
2023-09-13T18:44:55.977Z,1.90
2023-09-13T18:47:22.651Z,1.98
2023-09-13T18:49:49.301Z,2.07
2023-09-13T18:52:16.294Z,2.02
2023-09-13T18:54:43.014Z,1.91
2023-09-13T18:57:11.119Z,1.90
2023-09-13T18:59:40.750Z,1.99
2023-09-13T19:02:07.462Z,2.21
2023-09-13T19:04:34.202Z,2.34
2023-09-13T19:07:09.504Z,2.33
2023-09-13T19:09:39.799Z,2.30
2023-09-13T19:12:07.906Z,2.67
2023-09-13T19:14:34.766Z,2.56
2023-09-13T19:17:01.693Z,2.43
2023-09-13T19:19:28.342Z,2.29
2023-09-13T19:21:55.104Z,2.10
2023-09-13T19:24:21.906Z,2.08
2023-09-13T19:26:48.586Z,2.33
2023-09-13T19:29:15.590Z,2.05
2023-09-13T19:31:42.416Z,2.23
2023-09-13T19:34:09.144Z,2.27
2023-09-13T19:36:35.870Z,2.34
2023-09-13T19:39:03.546Z,2.40
2023-09-13T19:41:30.217Z,2.36
2023-09-13T19:43:57.381Z,2.20
2023-09-13T19:46:24.289Z,2.36
2023-09-13T19:48:51.060Z,2.37
2023-09-13T19:51:17.919Z,2.08
2023-09-13T19:53:44.818Z,2.12
2023-09-13T19:56:11.690Z,2.33
2023-09-13T19:58:40.432Z,2.32
2023-09-13T20:01:09.310Z,2.33
2023-09-13T20:03:36.775Z,2.31
2023-09-13T20:06:21.816Z,2.33
2023-09-13T20:08:49.054Z,2.34
2023-09-13T20:11:16.938Z,2.24
2023-09-13T20:13:44.689Z,2.44
2023-09-13T20:16:11.480Z,2.55
2023-09-13T20:18:38.663Z,2.54
2023-09-13T20:21:05.824Z,2.62
2023-09-13T20:23:32.733Z,2.56
2023-09-13T20:26:00.225Z,2.71
2023-09-13T20:28:29.932Z,2.58
2023-09-13T20:30:57.284Z,2.63
2023-09-13T20:33:24.073Z,2.69
2023-09-13T20:35:50.936Z,2.68
2023-09-13T20:38:18.494Z,2.65
2023-09-13T20:40:45.628Z,2.82
2023-09-13T20:43:12.965Z,2.90
2023-09-13T20:45:39.962Z,2.68
2023-09-13T20:48:07.012Z,2.74
2023-09-13T20:50:33.734Z,2.73
2023-09-13T20:53:00.479Z,2.74
2023-09-13T20:55:29.517Z,2.70
2023-09-13T20:57:56.355Z,2.82
2023-09-13T21:00:23.093Z,2.61
2023-09-13T21:02:49.935Z,2.51
2023-09-13T21:05:19.427Z,2.36
2023-09-13T21:07:46.113Z,2.54
2023-09-13T21:10:13.880Z,2.29
2023-09-13T21:12:40.618Z,2.34
2023-09-13T21:15:08.266Z,2.51
2023-09-13T21:17:35.179Z,2.52
2023-09-13T21:20:01.933Z,2.58
2023-09-13T21:22:28.622Z,2.50
2023-09-13T21:24:55.319Z,2.80
2023-09-13T21:27:22.660Z,2.82
2023-09-13T21:29:49.328Z,3.07
2023-09-13T21:32:16.001Z,2.90
2023-09-13T21:34:59.027Z,3.06
2023-09-13T21:37:29.571Z,2.67
2023-09-13T21:39:57.687Z,2.72
2023-09-13T21:42:24.434Z,2.84
2023-09-13T21:44:56.112Z,2.92
2023-09-13T21:47:22.993Z,3.30
2023-09-13T21:49:49.643Z,3.11
2023-09-13T21:52:16.376Z,2.83
2023-09-13T21:54:48.489Z,3.03
2023-09-13T21:57:18.501Z,2.93
2023-09-13T21:59:45.247Z,2.75
2023-09-13T22:02:11.905Z,3.07
2023-09-13T22:04:38.650Z,3.26
2023-09-13T22:07:05.474Z,2.92
2023-09-13T22:09:32.289Z,2.74
2023-09-13T22:11:58.977Z,2.98
2023-09-13T22:14:25.780Z,3.19
2023-09-13T22:16:52.544Z,3.33
2023-09-13T22:19:19.250Z,3.16
2023-09-13T22:21:46.009Z,3.18
2023-09-13T22:24:12.810Z,3.02
2023-09-13T22:26:39.968Z,3.06
2023-09-13T22:29:07.174Z,2.91
2023-09-13T22:31:33.891Z,2.90
2023-09-13T22:34:00.675Z,3.03
2023-09-13T22:36:28.340Z,3.02
2023-09-13T22:39:07.625Z,2.84
2023-09-13T22:41:37.723Z,3.02
2023-09-13T22:44:04.814Z,3.08
2023-09-13T22:46:31.567Z,3.03
2023-09-13T22:48:58.288Z,3.15
2023-09-13T22:51:25.045Z,3.23
2023-09-13T22:53:51.717Z,3.15
2023-09-13T22:56:19.142Z,3.10
2023-09-13T22:58:46.127Z,3.10
2023-09-13T23:01:13.106Z,3.10
2023-09-13T23:03:45.523Z,3.05
2023-09-13T23:06:13.142Z,3.08
2023-09-13T23:08:40.289Z,2.94
2023-09-13T23:11:07.423Z,3.10
2023-09-13T23:13:34.864Z,3.33
2023-09-13T23:16:07.965Z,3.09
2023-09-13T23:18:36.950Z,3.05
2023-09-13T23:21:04.517Z,2.99
2023-09-13T23:23:31.343Z,3.02
2023-09-13T23:26:06.254Z,3.08
2023-09-13T23:28:37.287Z,3.12
2023-09-13T23:31:10.212Z,3.25
2023-09-13T23:33:42.370Z,3.36
2023-09-13T23:36:10.631Z,3.39
2023-09-13T23:38:38.786Z,3.19
2023-09-13T23:41:06.710Z,3.02
2023-09-13T23:43:37.859Z,3.27
2023-09-13T23:46:05.698Z,3.11
2023-09-13T23:48:33.785Z,3.11
2023-09-13T23:51:01.656Z,3.03
2023-09-13T23:53:28.330Z,3.37
2023-09-13T23:55:55.015Z,3.17
2023-09-13T23:58:21.802Z,3.19
